ADDS METAR Data INFO
IDs: Format: Raw Decoded Include TAF

Data at: 1517 UTC 23 Oct 2017

KUCY 231455Z AUTO 28005KT 3SM BR FEW014 SCT026 12/11 A2992 RMK A01 P0001
KUCY 231435Z AUTO 29006KT 1 3/4SM BR SCT009 BKN014 12/11 A2992 RMK A01
KUCY 231415Z AUTO 28009KT 2SM BR BKN007 BKN011 12/11 A2992 RMK A01
KUCY 231355Z AUTO 29005G11KT 9SM SCT008 BKN014 12/11 A2992 RMK A01
KUCY 231335Z AUTO 28004KT 10SM BKN012 OVC017 12/11 A2991 RMK A01
KUCY 231315Z AUTO 31003KT 5SM BR OVC011 12/11 A2991 RMK A01
KUCY 231255Z AUTO 30004KT 9SM BKN010 OVC015 12/11 A2990 RMK A01
KUCY 231235Z AUTO 31003KT 9SM SCT007 BKN014 OVC021 12/11 A2990 RMK A01
KUCY 231215Z AUTO 31006KT 4SM BR OVC008 12/11 A2990 RMK A01
KUCY 231155Z AUTO 30004G11KT 2SM BR BKN006 OVC011 12/11 A2990 RMK A01
KUCY 231135Z AUTO 29006KT 2SM BR BKN006 OVC010 12/11 A2990 RMK A01
KUCY 231115Z AUTO 29006KT 2SM BR OVC005 12/11 A2989 RMK A01
KUCY 231055Z AUTO 30006G11KT 2SM BR OVC005 12/11 A2989 RMK A01
KUCY 231035Z AUTO 30004KT 2SM BR OVC005 12/11 A2989 RMK A01
KUCY 231015Z AUTO 29006KT 1 1/2SM BR OVC005 12/11 A2990 RMK A01
KUCY 230955Z AUTO 30006KT 1 3/4SM BR BKN005 OVC009 12/12 A2990 RMK A01
KUCY 230935Z AUTO 30005KT 2SM BR OVC007 12/12 A2990 RMK A01
KUCY 230915Z AUTO 30006KT 9SM OVC007 12/12 A2990 RMK A01
KUCY 230855Z AUTO VRB05KT 10SM OVC006 13/12 A2991 RMK A01
KUCY 230835Z AUTO 32008KT 8SM OVC007 13/12 A2989 RMK A01
KUCY 230815Z AUTO 31006G12KT 9SM OVC006 13/12 A2989 RMK A01
KUCY 230755Z AUTO 30006G12KT 6SM BR OVC006 13/12 A2990 RMK A01
KUCY 230735Z AUTO VRB05KT 7SM OVC006 13/12 A2991 RMK A01
KUCY 230715Z AUTO 28005G12KT 10SM OVC007 13/12 A2991 RMK A01
KUCY 230655Z AUTO 28007KT 10SM OVC007 13/12 A2992 RMK A01
KUCY 230635Z AUTO 28004G13KT 10SM OVC007 13/12 A2992 RMK A01
KUCY 230615Z AUTO 30005KT 10SM OVC008 13/12 A2993 RMK A01
KUCY 230555Z AUTO 30005KT 10SM OVC007 13/12 A2992 RMK A01 P0001
KUCY 230535Z AUTO 26006KT 10SM OVC008 13/13 A2994 RMK A01
KUCY 230515Z AUTO 30003KT 7SM OVC009 13/13 A2993 RMK A01
KUCY 230455Z AUTO 00000KT 3SM BR OVC008 13/13 A2993 RMK A01 P0002
KUCY 230435Z AUTO 00000KT 10SM OVC008 14/13 A2994 RMK A01
KUCY 230415Z AUTO 33003KT 3SM BR OVC007 14/13 A2993 RMK A01
KUCY 230355Z AUTO 29006KT 10SM OVC007 14/13 A2993 RMK A01
KUCY 230335Z AUTO VRB06KT 10SM OVC007 14/13 A2991 RMK A01
KUCY 230315Z AUTO 29008G13KT 10SM OVC007 14/13 A2991 RMK A01
KUCY 230255Z AUTO VRB06G13KT 9SM OVC007 15/14 A2992 RMK A01 P0002
KUCY 230235Z AUTO 28010G16KT 9SM OVC006 15/14 A2992 RMK A01
KUCY 230215Z AUTO 29008G17KT 6SM BR OVC005 16/15 A2990 RMK A01
KUCY 230155Z AUTO 27012KT 4SM BR BKN005 BKN011 OVC017 19/18 A2989 RMK A01 P0011
KUCY 230135Z AUTO 19012KT 6SM BR SCT010 BKN017 OVC039 20/19 A2988 RMK A01
KUCY 230115Z AUTO 11005KT 5SM BR FEW019 BKN030 OVC043 20/19 A2989 RMK A01
KUCY 230055Z AUTO 14004KT 5SM BR SCT028 BKN034 OVC075 20/19 A2990 RMK A01 P0009
KUCY 230035Z AUTO 15005KT 7SM FEW029 SCT034 BKN042 20/19 A2991 RMK A01
KUCY 230015Z AUTO 15007KT 4SM BR BKN030 BKN041 OVC050 21/19 A2991 RMK A01
KUCY 222355Z AUTO 14005KT 5SM BR SCT028 BKN032 OVC055 21/19 A2991 RMK A01 P0006
KUCY 222335Z AUTO 16008G18KT 4SM BR SCT030 BKN039 OVC044 21/19 A2991 RMK A01
KUCY 222315Z AUTO 15005KT 10SM SCT024 OVC033 21/19 A2991 RMK A01
KUCY 222255Z AUTO 00000KT 10SM BKN024 OVC033 21/20 A2991 RMK A01
KUCY 222235Z AUTO 00000KT 10SM BKN025 BKN031 OVC036 21/20 A2992 RMK A01
KUCY 222215Z AUTO 00000KT 10SM SCT031 BKN036 OVC043 21/20 A2993 RMK A01
KUCY 222155Z AUTO 00000KT 9SM BKN033 BKN045 OVC120 21/20 A2993 RMK A01
KUCY 222135Z AUTO 00000KT 7SM SCT031 BKN055 OVC120 21/20 A2994 RMK A01
KUCY 222115Z AUTO 18004KT 10SM BKN029 BKN035 OVC045 21/20 A2995 RMK A01
KUCY 222055Z AUTO 24005KT 9SM BKN035 OVC043 21/19 A2995 RMK A01 P0001
KUCY 222035Z AUTO 25007KT 7SM BKN033 OVC042 22/19 A2995 RMK A01
KUCY 222015Z AUTO 19012KT 7SM BKN034 OVC040 24/18 A2995 RMK A01
KUCY 221955Z AUTO 17011G17KT 10SM BKN037 OVC055 25/17 A2995 RMK A01
KUCY 221935Z AUTO 17011G17KT 10SM SCT037 BKN050 BKN060 25/17 A2995 RMK A01
KUCY 221915Z AUTO 17014G21KT 10SM SCT036 BKN050 BKN065 25/17 A2996 RMK A01
KUCY 221855Z AUTO 18018G23KT 10SM BKN037 BKN055 OVC085 26/17 A2996 RMK A01
KUCY 221835Z AUTO 18019G25KT 10SM BKN038 BKN055 OVC075 25/17 A2997 RMK A01
KUCY 221815Z AUTO 17017G26KT 10SM BKN042 BKN050 OVC075 26/17 A2998 RMK A01
KUCY 221755Z AUTO 19018KT 10SM BKN042 BKN048 BKN070 26/16 A2999 RMK A01
KUCY 221735Z AUTO 18016G21KT 10SM CLR 26/16 A2999 RMK A01
KUCY 221715Z AUTO 18014G19KT 10SM FEW037 26/16 A3000 RMK A01
KUCY 221655Z AUTO 18016KT 10SM SCT037 SCT070 26/16 A3001 RMK A01
KUCY 221635Z AUTO 17016G23KT 10SM BKN037 BKN044 BKN070 25/17 A3001 RMK A01
KUCY 221615Z AUTO 18016KT 10SM BKN036 BKN044 24/16 A3002 RMK A01
KUCY 221555Z AUTO 18016G22KT 10SM FEW034 FEW043 25/17 A3001 RMK A01
KUCY 221535Z AUTO 17017KT 10SM FEW033 SCT044 25/17 A3001 RMK A01
KUCY 221515Z AUTO 17014G19KT 10SM SCT033 SCT042 24/17 A3001 RMK A01
KUCY 221455Z AUTO 18014G21KT 10SM CLR 24/17 A3002 RMK A01
KUCY 221435Z AUTO 18012G19KT 10SM FEW030 FEW110 22/17 A3002 RMK A01
KUCY 221415Z AUTO 18011G19KT 10SM FEW110 22/16 A3003 RMK A01
KUCY 221355Z AUTO 16013G19KT 10SM FEW055 SCT110 22/16 A3002 RMK A01
KUCY 221335Z AUTO 18014G19KT 10SM SCT055 BKN100 22/17 A3002 RMK A01
KUCY 221315Z AUTO 16010KT 10SM FEW100 FEW120 21/17 A3001 RMK A01
KUCY 221255Z AUTO 17007KT 10SM CLR 19/16 A3002 RMK A01
KUCY 221235Z AUTO 15007G13KT 10SM CLR 19/16 A3001 RMK A01
KUCY 221215Z AUTO 17006G13KT 10SM FEW070 FEW110 19/16 A3001 RMK A01
KUCY 221155Z AUTO 15011G16KT 10SM FEW050 SCT070 BKN110 20/16 A3001 RMK A01
KUCY 221135Z AUTO 16009G17KT 10SM FEW002 SCT055 BKN075 20/16 A3001 RMK A01
KUCY 221115Z AUTO 17012KT 10SM FEW034 BKN075 OVC120 20/16 A3002 RMK A01
KUCY 221055Z AUTO 16010KT 10SM FEW046 SCT070 BKN100 20/16 A3001 RMK A01
KUCY 221035Z AUTO 16012KT 10SM FEW030 SCT048 BKN090 20/17 A3001 RMK A01
KUCY 221015Z AUTO 17013KT 10SM FEW075 OVC090 21/16 A3002 RMK A01
KUCY 220955Z AUTO 17013G18KT 10SM SCT065 BKN080 OVC090 21/16 A3001 RMK A01
KUCY 220935Z AUTO 17011KT 10SM OVC060 21/16 A3002 RMK A01
KUCY 220915Z AUTO 16010G15KT 10SM OVC060 21/17 A3001 RMK A01
KUCY 220855Z AUTO 16008G14KT 10SM FEW050 BKN060 21/17 A3001 RMK A01
KUCY 220835Z AUTO 16010G15KT 10SM FEW043 SCT050 BKN055 21/16 A3001 RMK A01
KUCY 220815Z AUTO 15009KT 10SM FEW034 SCT044 BKN049 20/16 A3001 RMK A01
KUCY 220755Z AUTO 16011KT 10SM BKN044 OVC050 20/16 A3002 RMK A01
KUCY 220735Z AUTO 17010G16KT 10SM FEW043 BKN050 BKN100 20/16 A3003 RMK A01
KUCY 220715Z AUTO 17008KT 10SM FEW050 SCT100 SCT120 20/16 A3003 RMK A01
KUCY 220655Z AUTO 17011G18KT 10SM FEW110 21/16 A3004 RMK A01
KUCY 220635Z AUTO 16011KT 10SM FEW110 21/16 A3004 RMK A01
KUCY 220615Z AUTO 16012KT 10SM CLR 20/16 A3004 RMK A01
KUCY 220555Z AUTO 16010KT 10SM CLR 20/16 A3005 RMK A01
KUCY 220535Z AUTO 16009KT 10SM CLR 20/16 A3006 RMK A01
KUCY 220515Z AUTO 16010KT 10SM CLR 20/16 A3006 RMK A01
KUCY 220455Z AUTO 16009KT 10SM CLR 20/16 A3006 RMK A01
KUCY 220435Z AUTO 15008KT 10SM CLR 20/16 A3006 RMK A01
KUCY 220415Z AUTO 15006G13KT 10SM CLR 20/16 A3007 RMK A01
KUCY 220355Z AUTO 16009KT 10SM CLR 20/16 A3008 RMK A01
KUCY 220335Z AUTO 16009KT 10SM CLR 20/16 A3007 RMK A01